sensor_id;sensor_type;location;lat;lon;timestamp;pressure;altitude;pressure_sealevel;temperature;humidity
32492;BME280;20605;49.742;18.802;2023-03-24T00:01:51;97332.63;;;14.90;88.77
32492;BME280;20605;49.742;18.802;2023-03-24T00:04:17;97332.76;;;14.91;88.85
32492;BME280;20605;49.742;18.802;2023-03-24T00:06:43;97327.64;;;14.92;88.95
32492;BME280;20605;49.742;18.802;2023-03-24T00:09:09;97327.98;;;14.92;89.17
32492;BME280;20605;49.742;18.802;2023-03-24T00:11:35;97327.11;;;14.92;89.30
32492;BME280;20605;49.742;18.802;2023-03-24T00:14:02;97323.52;;;14.91;89.40
32492;BME280;20605;49.742;18.802;2023-03-24T00:16:28;97319.19;;;14.90;89.51
32492;BME280;20605;49.742;18.802;2023-03-24T00:18:54;97316.40;;;14.90;89.61
32492;BME280;20605;49.742;18.802;2023-03-24T00:21:22;97313.64;;;14.89;89.65
32492;BME280;20605;49.742;18.802;2023-03-24T00:23:49;97311.59;;;14.88;89.65
32492;BME280;20605;49.742;18.802;2023-03-24T00:26:19;97309.89;;;14.87;89.87
32492;BME280;20605;49.742;18.802;2023-03-24T00:28:47;97307.18;;;14.86;89.78
32492;BME280;20605;49.742;18.802;2023-03-24T00:31:14;97302.72;;;14.84;89.94
32492;BME280;20605;49.742;18.802;2023-03-24T00:33:42;97299.66;;;14.83;90.01
32492;BME280;20605;49.742;18.802;2023-03-24T00:36:10;97297.65;;;14.81;90.03
32492;BME280;20605;49.742;18.802;2023-03-24T00:38:37;97291.97;;;14.80;90.19
32492;BME280;20605;49.742;18.802;2023-03-24T00:41:05;97288.14;;;14.79;90.31
32492;BME280;20605;49.742;18.802;2023-03-24T00:43:32;97286.73;;;14.76;90.43
32492;BME280;20605;49.742;18.802;2023-03-24T00:45:59;97286.83;;;14.75;90.71
32492;BME280;20605;49.742;18.802;2023-03-24T00:48:28;97282.88;;;14.71;91.01
32492;BME280;20605;49.742;18.802;2023-03-24T00:50:54;97278.73;;;14.63;91.03
32492;BME280;20605;49.742;18.802;2023-03-24T00:53:21;97272.81;;;14.57;91.32
32492;BME280;20605;49.742;18.802;2023-03-24T00:55:57;97273.14;;;14.51;91.65
32492;BME280;20605;49.742;18.802;2023-03-24T00:58:23;97267.58;;;14.44;91.85
32492;BME280;20605;49.742;18.802;2023-03-24T01:00:54;97264.92;;;14.38;92.13
32492;BME280;20605;49.742;18.802;2023-03-24T01:03:22;97258.77;;;14.32;92.38
32492;BME280;20605;49.742;18.802;2023-03-24T01:05:52;97258.29;;;14.26;92.64
32492;BME280;20605;49.742;18.802;2023-03-24T01:08:22;97259.31;;;14.17;93.40
32492;BME280;20605;49.742;18.802;2023-03-24T01:10:50;97256.55;;;14.07;93.95
32492;BME280;20605;49.742;18.802;2023-03-24T01:13:26;97254.92;;;13.98;94.32
32492;BME280;20605;49.742;18.802;2023-03-24T01:15:53;97248.46;;;13.92;94.49
32492;BME280;20605;49.742;18.802;2023-03-24T01:18:19;97243.88;;;13.86;94.61
32492;BME280;20605;49.742;18.802;2023-03-24T01:20:46;97240.31;;;13.81;95.10
32492;BME280;20605;49.742;18.802;2023-03-24T01:23:20;97238.05;;;13.75;95.50
32492;BME280;20605;49.742;18.802;2023-03-24T01:25:46;97228.15;;;13.70;95.87
32492;BME280;20605;49.742;18.802;2023-03-24T01:28:14;97216.23;;;13.65;96.56
32492;BME280;20605;49.742;18.802;2023-03-24T01:30:41;97220.05;;;13.59;96.61
32492;BME280;20605;49.742;18.802;2023-03-24T01:33:07;97224.19;;;13.56;96.52
32492;BME280;20605;49.742;18.802;2023-03-24T01:35:35;97223.15;;;13.56;96.61
32492;BME280;20605;49.742;18.802;2023-03-24T01:38:07;97224.62;;;13.58;96.91
32492;BME280;20605;49.742;18.802;2023-03-24T01:40:36;97224.19;;;13.60;96.74
32492;BME280;20605;49.742;18.802;2023-03-24T01:43:03;97225.16;;;13.61;96.77
32492;BME280;20605;49.742;18.802;2023-03-24T01:48:17;97217.17;;;13.64;97.07
32492;BME280;20605;49.742;18.802;2023-03-24T01:50:46;97221.60;;;13.66;97.07
32492;BME280;20605;49.742;18.802;2023-03-24T01:53:13;97219.64;;;13.66;97.39
32492;BME280;20605;49.742;18.802;2023-03-24T01:55:41;97222.70;;;13.68;97.57
32492;BME280;20605;49.742;18.802;2023-03-24T01:58:08;97222.19;;;13.70;97.87
32492;BME280;20605;49.742;18.802;2023-03-24T02:00:48;97213.73;;;13.72;97.90
32492;BME280;20605;49.742;18.802;2023-03-24T02:03:33;97214.86;;;13.74;98.04
32492;BME280;20605;49.742;18.802;2023-03-24T02:06:03;97211.06;;;13.77;97.86
32492;BME280;20605;49.742;18.802;2023-03-24T02:11:08;97204.52;;;13.82;98.09
32492;BME280;20605;49.742;18.802;2023-03-24T02:13:41;97202.73;;;13.88;98.03
32492;BME280;20605;49.742;18.802;2023-03-24T02:19:12;97191.63;;;13.94;97.39
32492;BME280;20605;49.742;18.802;2023-03-24T02:36:27;97175.88;;;13.91;97.56
32492;BME280;20605;49.742;18.802;2023-03-24T02:42:02;97164.93;;;13.87;97.76
32492;BME280;20605;49.742;18.802;2023-03-24T02:47:17;97164.30;;;13.83;98.09
32492;BME280;20605;49.742;18.802;2023-03-24T02:49:55;97158.27;;;13.81;98.14
32492;BME280;20605;49.742;18.802;2023-03-24T02:55:21;97159.23;;;13.80;98.45
32492;BME280;20605;49.742;18.802;2023-03-24T02:58:34;97153.79;;;13.81;98.30
32492;BME280;20605;49.742;18.802;2023-03-24T03:01:07;97150.86;;;13.80;98.27
32492;BME280;20605;49.742;18.802;2023-03-24T03:04:07;97152.88;;;13.78;98.41
32492;BME280;20605;49.742;18.802;2023-03-24T03:06:39;97152.89;;;13.78;98.24
32492;BME280;20605;49.742;18.802;2023-03-24T03:09:09;97149.64;;;13.77;98.06
32492;BME280;20605;49.742;18.802;2023-03-24T03:11:38;97150.68;;;13.77;98.01
32492;BME280;20605;49.742;18.802;2023-03-24T03:14:10;97152.23;;;13.77;98.25
32492;BME280;20605;49.742;18.802;2023-03-24T03:16:55;97147.52;;;13.77;98.15
32492;BME280;20605;49.742;18.802;2023-03-24T03:19:32;97143.69;;;13.77;98.28
32492;BME280;20605;49.742;18.802;2023-03-24T03:22:01;97138.79;;;13.81;98.17
32492;BME280;20605;49.742;18.802;2023-03-24T03:24:37;97139.42;;;13.88;98.06
32492;BME280;20605;49.742;18.802;2023-03-24T03:27:29;97138.30;;;13.95;97.87
32492;BME280;20605;49.742;18.802;2023-03-24T03:30:25;97141.03;;;14.06;97.58
32492;BME280;20605;49.742;18.802;2023-03-24T03:33:00;97141.00;;;14.16;97.25
32492;BME280;20605;49.742;18.802;2023-03-24T03:36:19;97143.31;;;14.24;97.14
32492;BME280;20605;49.742;18.802;2023-03-24T03:38:30;97143.03;;;14.32;96.86
32492;BME280;20605;49.742;18.802;2023-03-24T03:41:00;97143.34;;;14.38;96.67
32492;BME280;20605;49.742;18.802;2023-03-24T03:43:32;97141.71;;;14.46;96.46
32492;BME280;20605;49.742;18.802;2023-03-24T03:45:59;97147.02;;;14.54;96.38
32492;BME280;20605;49.742;18.802;2023-03-24T03:48:30;97147.21;;;14.56;96.27
32492;BME280;20605;49.742;18.802;2023-03-24T03:50:56;97147.06;;;14.59;96.21
32492;BME280;20605;49.742;18.802;2023-03-24T03:53:29;97145.72;;;14.58;96.14
32492;BME280;20605;49.742;18.802;2023-03-24T03:55:56;97146.10;;;14.57;96.07
32492;BME280;20605;49.742;18.802;2023-03-24T03:58:22;97142.64;;;14.57;96.04
32492;BME280;20605;49.742;18.802;2023-03-24T04:00:54;97139.70;;;14.56;95.85
32492;BME280;20605;49.742;18.802;2023-03-24T04:06:40;97145.23;;;14.54;95.87
32492;BME280;20605;49.742;18.802;2023-03-24T04:12:29;97144.38;;;14.48;96.07
32492;BME280;20605;49.742;18.802;2023-03-24T04:30:24;97142.83;;;14.08;97.67
32492;BME280;20605;49.742;18.802;2023-03-24T04:33:08;97146.99;;;14.02;97.69
32492;BME280;20605;49.742;18.802;2023-03-24T04:35:39;97143.69;;;13.99;98.02
32492;BME280;20605;49.742;18.802;2023-03-24T04:38:18;97139.33;;;13.96;98.33
32492;BME280;20605;49.742;18.802;2023-03-24T04:40:53;97143.02;;;13.95;98.60
32492;BME280;20605;49.742;18.802;2023-03-24T04:43:25;97140.45;;;13.91;98.81
32492;BME280;20605;49.742;18.802;2023-03-24T04:45:53;97139.94;;;13.88;99.29
32492;BME280;20605;49.742;18.802;2023-03-24T04:48:43;97141.66;;;13.82;99.89
32492;BME280;20605;49.742;18.802;2023-03-24T04:51:25;97138.16;;;13.79;99.98
32492;BME280;20605;49.742;18.802;2023-03-24T04:54:02;97139.53;;;13.76;100.00
32492;BME280;20605;49.742;18.802;2023-03-24T04:59:13;97138.61;;;13.67;100.00
32492;BME280;20605;49.742;18.802;2023-03-24T05:01:41;97142.60;;;13.62;100.00
32492;BME280;20605;49.742;18.802;2023-03-24T05:04:25;97142.91;;;13.56;100.00
32492;BME280;20605;49.742;18.802;2023-03-24T05:06:51;97142.38;;;13.50;100.00
32492;BME280;20605;49.742;18.802;2023-03-24T05:09:20;97145.74;;;13.46;100.00
32492;BME280;20605;49.742;18.802;2023-03-24T05:11:47;97145.58;;;13.42;100.00
32492;BME280;20605;49.742;18.802;2023-03-24T05:14:13;97142.48;;;13.41;100.00
32492;BME280;20605;49.742;18.802;2023-03-24T05:16:40;97141.00;;;13.40;100.00
32492;BME280;20605;49.742;18.802;2023-03-24T05:19:05;97143.99;;;13.36;100.00
32492;BME280;20605;49.742;18.802;2023-03-24T05:21:33;97140.78;;;13.34;100.00
32492;BME280;20605;49.742;18.802;2023-03-24T05:23:59;97144.38;;;13.32;100.00
32492;BME280;20605;49.742;18.802;2023-03-24T05:26:25;97147.73;;;13.31;100.00
32492;BME280;20605;49.742;18.802;2023-03-24T05:29:03;97152.10;;;13.31;100.00
32492;BME280;20605;49.742;18.802;2023-03-24T05:31:29;97150.52;;;13.31;100.00
32492;BME280;20605;49.742;18.802;2023-03-24T05:34:07;97151.86;;;13.32;100.00
32492;BME280;20605;49.742;18.802;2023-03-24T05:36:42;97150.30;;;13.32;100.00
32492;BME280;20605;49.742;18.802;2023-03-24T05:39:08;97151.85;;;13.32;100.00
32492;BME280;20605;49.742;18.802;2023-03-24T05:41:42;97151.27;;;13.33;100.00
32492;BME280;20605;49.742;18.802;2023-03-24T05:44:08;97151.50;;;13.36;100.00
32492;BME280;20605;49.742;18.802;2023-03-24T05:46:34;97149.97;;;13.38;100.00
32492;BME280;20605;49.742;18.802;2023-03-24T05:49:02;97150.16;;;13.42;100.00
32492;BME280;20605;49.742;18.802;2023-03-24T05:51:33;97157.36;;;13.44;100.00
32492;BME280;20605;49.742;18.802;2023-03-24T05:54:02;97155.76;;;13.44;100.00
32492;BME280;20605;49.742;18.802;2023-03-24T05:56:34;97152.54;;;13.46;100.00
32492;BME280;20605;49.742;18.802;2023-03-24T05:59:11;97152.61;;;13.48;100.00
32492;BME280;20605;49.742;18.802;2023-03-24T06:02:03;97152.44;;;13.51;100.00
32492;BME280;20605;49.742;18.802;2023-03-24T06:04:39;97154.34;;;13.54;100.00
32492;BME280;20605;49.742;18.802;2023-03-24T06:07:11;97147.75;;;13.57;100.00
32492;BME280;20605;49.742;18.802;2023-03-24T06:09:38;97146.73;;;13.59;100.00
32492;BME280;20605;49.742;18.802;2023-03-24T06:12:08;97156.63;;;13.63;100.00
32492;BME280;20605;49.742;18.802;2023-03-24T06:14:35;97159.23;;;13.67;100.00
32492;BME280;20605;49.742;18.802;2023-03-24T06:17:08;97156.35;;;13.72;100.00
32492;BME280;20605;49.742;18.802;2023-03-24T06:19:40;97148.52;;;13.75;100.00
32492;BME280;20605;49.742;18.802;2023-03-24T06:22:24;97158.09;;;13.79;100.00
32492;BME280;20605;49.742;18.802;2023-03-24T06:24:49;97157.73;;;13.82;100.00
32492;BME280;20605;49.742;18.802;2023-03-24T06:27:15;97158.73;;;13.86;100.00
32492;BME280;20605;49.742;18.802;2023-03-24T06:29:43;97164.36;;;13.91;100.00
32492;BME280;20605;49.742;18.802;2023-03-24T06:32:09;97166.95;;;13.95;100.00
32492;BME280;20605;49.742;18.802;2023-03-24T06:34:40;97168.05;;;14.00;100.00
32492;BME280;20605;49.742;18.802;2023-03-24T06:37:26;97167.50;;;14.00;100.00
32492;BME280;20605;49.742;18.802;2023-03-24T06:39:52;97166.19;;;13.99;100.00
32492;BME280;20605;49.742;18.802;2023-03-24T06:42:20;97162.15;;;13.99;100.00
32492;BME280;20605;49.742;18.802;2023-03-24T06:45:06;97159.48;;;14.00;100.00
32492;BME280;20605;49.742;18.802;2023-03-24T06:48:09;97164.41;;;14.03;100.00
32492;BME280;20605;49.742;18.802;2023-03-24T06:51:03;97158.82;;;14.03;100.00
32492;BME280;20605;49.742;18.802;2023-03-24T06:53:29;97151.27;;;14.04;100.00
32492;BME280;20605;49.742;18.802;2023-03-24T06:55:55;97143.40;;;14.07;100.00
32492;BME280;20605;49.742;18.802;2023-03-24T06:58:23;97136.13;;;14.12;100.00
32492;BME280;20605;49.742;18.802;2023-03-24T07:01:02;97128.89;;;14.20;100.00
32492;BME280;20605;49.742;18.802;2023-03-24T07:03:42;97120.45;;;14.27;100.00
32492;BME280;20605;49.742;18.802;2023-03-24T07:06:11;97120.67;;;14.34;100.00
32492;BME280;20605;49.742;18.802;2023-03-24T07:08:37;97114.42;;;14.40;100.00
32492;BME280;20605;49.742;18.802;2023-03-24T07:11:03;97110.45;;;14.43;100.00
32492;BME280;20605;49.742;18.802;2023-03-24T07:13:29;97106.23;;;14.43;99.99
32492;BME280;20605;49.742;18.802;2023-03-24T07:16:01;97100.86;;;14.42;99.99
32492;BME280;20605;49.742;18.802;2023-03-24T07:18:27;97090.08;;;14.48;100.00
32492;BME280;20605;49.742;18.802;2023-03-24T07:20:58;97091.61;;;14.63;100.00
32492;BME280;20605;49.742;18.802;2023-03-24T07:23:24;97086.77;;;14.74;99.99
32492;BME280;20605;49.742;18.802;2023-03-24T07:25:56;97088.38;;;14.82;99.98
32492;BME280;20605;49.742;18.802;2023-03-24T07:28:42;97082.85;;;14.90;99.97
32492;BME280;20605;49.742;18.802;2023-03-24T07:31:08;97073.45;;;14.98;99.83
32492;BME280;20605;49.742;18.802;2023-03-24T07:33:36;97070.13;;;15.04;99.35
32492;BME280;20605;49.742;18.802;2023-03-24T07:36:05;97061.58;;;15.12;99.39
32492;BME280;20605;49.742;18.802;2023-03-24T07:38:32;97056.82;;;15.23;98.60
32492;BME280;20605;49.742;18.802;2023-03-24T07:41:02;97050.35;;;15.29;98.02
32492;BME280;20605;49.742;18.802;2023-03-24T07:43:29;97047.03;;;15.35;97.35
32492;BME280;20605;49.742;18.802;2023-03-24T07:46:18;97042.20;;;15.47;97.02
32492;BME280;20605;49.742;18.802;2023-03-24T07:48:44;97040.52;;;15.58;96.61
32492;BME280;20605;49.742;18.802;2023-03-24T07:51:10;97037.86;;;15.74;96.92
32492;BME280;20605;49.742;18.802;2023-03-24T07:54:02;97038.05;;;15.98;96.61
32492;BME280;20605;49.742;18.802;2023-03-24T07:56:34;97033.02;;;16.21;95.91
32492;BME280;20605;49.742;18.802;2023-03-24T07:59:00;97027.84;;;16.30;95.18
32492;BME280;20605;49.742;18.802;2023-03-24T08:01:49;97019.91;;;16.46;94.80
32492;BME280;20605;49.742;18.802;2023-03-24T08:04:18;97018.27;;;16.63;94.16
32492;BME280;20605;49.742;18.802;2023-03-24T08:07:03;97016.05;;;16.75;92.91
32492;BME280;20605;49.742;18.802;2023-03-24T08:09:29;97008.95;;;16.84;92.78
32492;BME280;20605;49.742;18.802;2023-03-24T08:11:55;97004.39;;;16.87;91.27
32492;BME280;20605;49.742;18.802;2023-03-24T08:14:21;96999.79;;;16.94;92.34
32492;BME280;20605;49.742;18.802;2023-03-24T08:16:46;97001.80;;;17.18;90.89
32492;BME280;20605;49.742;18.802;2023-03-24T08:19:12;96990.99;;;17.24;91.04
32492;BME280;20605;49.742;18.802;2023-03-24T08:21:38;96985.15;;;17.40;89.75
32492;BME280;20605;49.742;18.802;2023-03-24T08:24:04;96983.95;;;17.56;88.18
32492;BME280;20605;49.742;18.802;2023-03-24T08:26:31;96977.01;;;17.62;85.78
32492;BME280;20605;49.742;18.802;2023-03-24T08:29:00;96967.85;;;17.73;85.56
32492;BME280;20605;49.742;18.802;2023-03-24T08:31:35;96969.52;;;17.93;85.64
32492;BME280;20605;49.742;18.802;2023-03-24T08:34:02;96961.14;;;18.25;84.61
32492;BME280;20605;49.742;18.802;2023-03-24T08:36:28;96959.48;;;18.55;84.09
32492;BME280;20605;49.742;18.802;2023-03-24T08:38:55;96963.25;;;18.84;82.23
32492;BME280;20605;49.742;18.802;2023-03-24T08:41:22;96961.11;;;19.00;80.32
32492;BME280;20605;49.742;18.802;2023-03-24T08:44:06;96949.44;;;19.20;80.21
32492;BME280;20605;49.742;18.802;2023-03-24T08:46:33;96956.36;;;19.41;79.43
32492;BME280;20605;49.742;18.802;2023-03-24T08:48:59;96954.63;;;19.61;80.23
32492;BME280;20605;49.742;18.802;2023-03-24T08:51:25;96950.39;;;19.88;78.83
32492;BME280;20605;49.742;18.802;2023-03-24T08:53:52;96948.42;;;19.99;77.14
32492;BME280;20605;49.742;18.802;2023-03-24T08:56:18;96954.95;;;20.01;77.26
32492;BME280;20605;49.742;18.802;2023-03-24T08:58:44;96957.61;;;20.14;76.89
32492;BME280;20605;49.742;18.802;2023-03-24T09:01:13;96958.50;;;20.22;76.71
32492;BME280;20605;49.742;18.802;2023-03-24T09:03:40;96957.32;;;20.24;76.15
32492;BME280;20605;49.742;18.802;2023-03-24T09:06:06;96970.34;;;20.24;75.99
32492;BME280;20605;49.742;18.802;2023-03-24T09:08:32;96963.66;;;20.38;76.03
32492;BME280;20605;49.742;18.802;2023-03-24T09:10:58;96959.52;;;20.54;75.80
32492;BME280;20605;49.742;18.802;2023-03-24T09:13:28;96956.98;;;20.79;75.82
32492;BME280;20605;49.742;18.802;2023-03-24T09:16:02;96955.03;;;20.87;74.36
32492;BME280;20605;49.742;18.802;2023-03-24T09:18:28;96957.27;;;20.88;74.59
32492;BME280;20605;49.742;18.802;2023-03-24T09:20:54;96951.66;;;20.84;73.63
32492;BME280;20605;49.742;18.802;2023-03-24T09:23:20;96947.23;;;20.70;72.52
32492;BME280;20605;49.742;18.802;2023-03-24T09:25:51;96944.30;;;20.40;70.89
32492;BME280;20605;49.742;18.802;2023-03-24T09:28:18;96948.69;;;20.24;73.05
32492;BME280;20605;49.742;18.802;2023-03-24T09:30:44;96945.94;;;20.25;73.54
32492;BME280;20605;49.742;18.802;2023-03-24T09:33:10;96944.91;;;20.29;73.62
32492;BME280;20605;49.742;18.802;2023-03-24T09:35:36;96950.27;;;20.28;73.36
32492;BME280;20605;49.742;18.802;2023-03-24T09:38:02;96953.88;;;20.29;73.74
32492;BME280;20605;49.742;18.802;2023-03-24T09:40:31;96953.32;;;20.33;73.41
32492;BME280;20605;49.742;18.802;2023-03-24T09:43:04;96945.69;;;20.36;73.53
32492;BME280;20605;49.742;18.802;2023-03-24T09:45:36;96942.08;;;20.46;71.94
32492;BME280;20605;49.742;18.802;2023-03-24T09:51:06;96941.02;;;20.29;71.06
32492;BME280;20605;49.742;18.802;2023-03-24T09:53:38;96945.29;;;20.15;71.45
32492;BME280;20605;49.742;18.802;2023-03-24T09:56:20;96942.52;;;20.03;71.41
32492;BME280;20605;49.742;18.802;2023-03-24T09:58:52;96951.06;;;19.82;70.60
32492;BME280;20605;49.742;18.802;2023-03-24T10:01:23;96947.58;;;19.67;71.01
32492;BME280;20605;49.742;18.802;2023-03-24T10:03:52;96945.77;;;19.61;71.23
32492;BME280;20605;49.742;18.802;2023-03-24T10:06:25;96948.35;;;19.56;71.11
32492;BME280;20605;49.742;18.802;2023-03-24T10:09:06;96950.08;;;19.58;72.24
32492;BME280;20605;49.742;18.802;2023-03-24T10:11:37;96951.73;;;19.66;72.03
32492;BME280;20605;49.742;18.802;2023-03-24T10:16:44;96941.87;;;19.89;72.52
32492;BME280;20605;49.742;18.802;2023-03-24T10:22:18;96937.42;;;19.86;70.79
32492;BME280;20605;49.742;18.802;2023-03-24T10:27:35;96924.19;;;19.65;71.21
32492;BME280;20605;49.742;18.802;2023-03-24T10:30:18;96923.16;;;19.75;71.01
32492;BME280;20605;49.742;18.802;2023-03-24T10:32:45;96920.45;;;19.86;70.77
32492;BME280;20605;49.742;18.802;2023-03-24T10:35:21;96927.30;;;19.95;70.49
32492;BME280;20605;49.742;18.802;2023-03-24T10:37:51;96922.70;;;20.01;70.80
32492;BME280;20605;49.742;18.802;2023-03-24T10:40:27;96917.11;;;20.22;71.01
32492;BME280;20605;49.742;18.802;2023-03-24T10:42:54;96915.49;;;20.41;70.72
32492;BME280;20605;49.742;18.802;2023-03-24T10:45:48;96904.30;;;20.48;69.88
32492;BME280;20605;49.742;18.802;2023-03-24T10:48:39;96903.48;;;20.54;68.94
32492;BME280;20605;49.742;18.802;2023-03-24T10:51:15;96895.42;;;20.43;68.54
32492;BME280;20605;49.742;18.802;2023-03-24T10:53:43;96894.23;;;20.40;68.56
32492;BME280;20605;49.742;18.802;2023-03-24T10:56:16;96890.63;;;20.37;68.51
32492;BME280;20605;49.742;18.802;2023-03-24T10:58:43;96890.77;;;20.33;68.79
32492;BME280;20605;49.742;18.802;2023-03-24T11:01:25;96883.91;;;20.33;68.28
32492;BME280;20605;49.742;18.802;2023-03-24T11:03:59;96878.15;;;20.32;68.40
32492;BME280;20605;49.742;18.802;2023-03-24T11:06:28;96882.13;;;20.31;67.92
32492;BME280;20605;49.742;18.802;2023-03-24T11:09:18;96873.60;;;20.32;68.44
32492;BME280;20605;49.742;18.802;2023-03-24T11:11:44;96874.16;;;20.38;67.56
32492;BME280;20605;49.742;18.802;2023-03-24T11:14:25;96866.85;;;20.24;66.90
32492;BME280;20605;49.742;18.802;2023-03-24T11:16:53;96861.70;;;20.16;67.43
32492;BME280;20605;49.742;18.802;2023-03-24T11:19:26;96862.73;;;20.23;67.93
32492;BME280;20605;49.742;18.802;2023-03-24T11:21:58;96864.14;;;20.31;67.36
32492;BME280;20605;49.742;18.802;2023-03-24T11:24:26;96862.02;;;20.37;67.51
32492;BME280;20605;49.742;18.802;2023-03-24T11:26:58;96857.10;;;20.49;67.34
32492;BME280;20605;49.742;18.802;2023-03-24T11:29:27;96844.98;;;20.57;67.25
32492;BME280;20605;49.742;18.802;2023-03-24T11:32:03;96840.34;;;20.66;67.31
32492;BME280;20605;49.742;18.802;2023-03-24T11:34:37;96839.79;;;20.74;65.96
32492;BME280;20605;49.742;18.802;2023-03-24T11:37:11;96833.39;;;20.75;66.99
32492;BME280;20605;49.742;18.802;2023-03-24T11:39:38;96833.15;;;20.91;66.87
32492;BME280;20605;49.742;18.802;2023-03-24T11:44:52;96826.04;;;21.03;65.49
32492;BME280;20605;49.742;18.802;2023-03-24T11:47:26;96821.55;;;21.04;65.30
32492;BME280;20605;49.742;18.802;2023-03-24T11:55:58;96816.83;;;21.29;65.42
32492;BME280;20605;49.742;18.802;2023-03-24T11:58:45;96814.39;;;21.38;65.98
32492;BME280;20605;49.742;18.802;2023-03-24T12:01:36;96818.64;;;21.46;66.28
32492;BME280;20605;49.742;18.802;2023-03-24T12:04:33;96815.27;;;21.56;66.99
32492;BME280;20605;49.742;18.802;2023-03-24T12:10:19;96815.90;;;21.76;66.85
32492;BME280;20605;49.742;18.802;2023-03-24T12:23:26;96806.27;;;21.62;65.58
32492;BME280;20605;49.742;18.802;2023-03-24T12:34:28;96792.30;;;21.11;62.70
32492;BME280;20605;49.742;18.802;2023-03-24T12:37:32;96797.35;;;20.97;63.15
32492;BME280;20605;49.742;18.802;2023-03-24T12:42:46;96798.56;;;20.91;63.95
32492;BME280;20605;49.742;18.802;2023-03-24T12:56:16;96792.56;;;20.85;64.36
32492;BME280;20605;49.742;18.802;2023-03-24T12:58:49;96785.89;;;20.75;63.23
32492;BME280;20605;49.742;18.802;2023-03-24T13:01:38;96789.30;;;20.64;63.28
32492;BME280;20605;49.742;18.802;2023-03-24T13:04:19;96782.48;;;20.60;63.76
32492;BME280;20605;49.742;18.802;2023-03-24T13:06:50;96788.71;;;20.57;64.07
32492;BME280;20605;49.742;18.802;2023-03-24T13:09:46;96784.23;;;20.56;64.48
32492;BME280;20605;49.742;18.802;2023-03-24T13:12:27;96784.98;;;20.57;65.15
32492;BME280;20605;49.742;18.802;2023-03-24T13:15:04;96781.18;;;20.61;65.33
32492;BME280;20605;49.742;18.802;2023-03-24T13:17:38;96780.92;;;20.58;65.33
32492;BME280;20605;49.742;18.802;2023-03-24T13:20:11;96783.95;;;20.55;66.08
32492;BME280;20605;49.742;18.802;2023-03-24T13:22:38;96781.15;;;20.53;66.10
32492;BME280;20605;49.742;18.802;2023-03-24T13:25:53;96780.45;;;20.49;66.31
32492;BME280;20605;49.742;18.802;2023-03-24T13:27:56;96777.13;;;20.46;66.85
32492;BME280;20605;49.742;18.802;2023-03-24T13:33:06;96771.05;;;20.43;66.68
32492;BME280;20605;49.742;18.802;2023-03-24T13:35:59;96771.58;;;20.39;66.62
32492;BME280;20605;49.742;18.802;2023-03-24T13:38:38;96771.02;;;20.37;66.78
32492;BME280;20605;49.742;18.802;2023-03-24T13:41:15;96773.18;;;20.35;67.04
32492;BME280;20605;49.742;18.802;2023-03-24T13:44:05;96774.08;;;20.35;66.87
32492;BME280;20605;49.742;18.802;2023-03-24T13:46:35;96778.39;;;20.34;67.20
32492;BME280;20605;49.742;18.802;2023-03-24T13:49:04;96778.27;;;20.33;67.05
32492;BME280;20605;49.742;18.802;2023-03-24T13:51:33;96774.13;;;20.30;66.62
32492;BME280;20605;49.742;18.802;2023-03-24T14:03:30;96771.83;;;20.28;66.88
32492;BME280;20605;49.742;18.802;2023-03-24T14:05:41;96768.14;;;20.28;66.19
32492;BME280;20605;49.742;18.802;2023-03-24T14:08:34;96772.34;;;20.20;65.55
32492;BME280;20605;49.742;18.802;2023-03-24T14:11:08;96769.39;;;20.12;65.11
32492;BME280;20605;49.742;18.802;2023-03-24T14:13:36;96769.69;;;20.00;64.58
32492;BME280;20605;49.742;18.802;2023-03-24T14:16:49;96766.82;;;19.88;64.85
32492;BME280;20605;49.742;18.802;2023-03-24T14:19:26;96759.92;;;19.74;64.39
32492;BME280;20605;49.742;18.802;2023-03-24T14:22:20;96760.75;;;19.63;64.60
32492;BME280;20605;49.742;18.802;2023-03-24T14:25:04;96760.47;;;19.53;65.34
32492;BME280;20605;49.742;18.802;2023-03-24T14:27:39;96755.10;;;19.48;65.41
32492;BME280;20605;49.742;18.802;2023-03-24T14:32:49;96755.38;;;19.37;65.72
32492;BME280;20605;49.742;18.802;2023-03-24T14:35:40;96760.61;;;19.31;65.88
32492;BME280;20605;49.742;18.802;2023-03-24T14:40:42;96759.65;;;19.28;67.03
32492;BME280;20605;49.742;18.802;2023-03-24T14:51:00;96751.55;;;19.19;67.13
32492;BME280;20605;49.742;18.802;2023-03-24T14:53:29;96752.65;;;19.18;67.35
32492;BME280;20605;49.742;18.802;2023-03-24T14:55:54;96752.54;;;19.18;67.45
32492;BME280;20605;49.742;18.802;2023-03-24T14:58:34;96758.55;;;19.17;67.49
32492;BME280;20605;49.742;18.802;2023-03-24T15:01:04;96762.02;;;19.14;67.33
32492;BME280;20605;49.742;18.802;2023-03-24T15:03:59;96765.23;;;19.11;67.84
32492;BME280;20605;49.742;18.802;2023-03-24T15:06:26;96765.24;;;19.09;68.42
32492;BME280;20605;49.742;18.802;2023-03-24T15:08:54;96758.55;;;19.00;68.14
32492;BME280;20605;49.742;18.802;2023-03-24T15:11:29;96766.34;;;18.89;68.57
32492;BME280;20605;49.742;18.802;2023-03-24T15:14:01;96765.63;;;18.80;69.05
32492;BME280;20605;49.742;18.802;2023-03-24T15:16:33;96767.70;;;18.75;69.31
32492;BME280;20605;49.742;18.802;2023-03-24T15:19:20;96770.48;;;18.67;69.51
32492;BME280;20605;49.742;18.802;2023-03-24T15:21:48;96771.70;;;18.53;69.87
32492;BME280;20605;49.742;18.802;2023-03-24T15:26:52;96777.21;;;18.30;70.42
32492;BME280;20605;49.742;18.802;2023-03-24T15:29:18;96777.33;;;18.24;70.59
32492;BME280;20605;49.742;18.802;2023-03-24T15:31:43;96778.40;;;18.18;70.91
32492;BME280;20605;49.742;18.802;2023-03-24T15:34:28;96781.13;;;18.10;71.42
32492;BME280;20605;49.742;18.802;2023-03-24T15:36:59;96782.66;;;18.02;71.57